sensor_id;sensor_type;location;lat;lon;timestamp;temperature;humidity
44277;DHT22;29973;43.742;1.236;2023-04-24T00:00:10;9.80;99.90
44277;DHT22;29973;43.742;1.236;2023-04-24T00:02:38;9.50;99.90
44277;DHT22;29973;43.742;1.236;2023-04-24T00:05:07;9.40;99.90
44277;DHT22;29973;43.742;1.236;2023-04-24T00:07:34;9.20;99.90
44277;DHT22;29973;43.742;1.236;2023-04-24T00:10:00;9.00;99.90
44277;DHT22;29973;43.742;1.236;2023-04-24T00:12:26;8.90;99.90
44277;DHT22;29973;43.742;1.236;2023-04-24T00:14:53;9.10;99.90
44277;DHT22;29973;43.742;1.236;2023-04-24T00:17:18;9.30;99.90
44277;DHT22;29973;43.742;1.236;2023-04-24T00:19:46;9.30;99.90
44277;DHT22;29973;43.742;1.236;2023-04-24T00:22:12;9.10;99.90
44277;DHT22;29973;43.742;1.236;2023-04-24T00:24:39;8.70;99.90
44277;DHT22;29973;43.742;1.236;2023-04-24T00:27:05;8.60;99.90
44277;DHT22;29973;43.742;1.236;2023-04-24T00:29:30;8.60;99.90
44277;DHT22;29973;43.742;1.236;2023-04-24T00:31:56;8.60;99.90
44277;DHT22;29973;43.742;1.236;2023-04-24T00:34:22;8.70;99.90
44277;DHT22;29973;43.742;1.236;2023-04-24T00:36:48;8.60;99.90
44277;DHT22;29973;43.742;1.236;2023-04-24T00:39:18;8.70;99.90
44277;DHT22;29973;43.742;1.236;2023-04-24T00:41:44;8.60;99.90
44277;DHT22;29973;43.742;1.236;2023-04-24T00:44:10;8.50;99.90
44277;DHT22;29973;43.742;1.236;2023-04-24T00:46:36;8.60;99.90
44277;DHT22;29973;43.742;1.236;2023-04-24T00:49:02;8.70;99.90
44277;DHT22;29973;43.742;1.236;2023-04-24T00:51:30;8.80;99.90
44277;DHT22;29973;43.742;1.236;2023-04-24T00:53:56;8.90;99.90
44277;DHT22;29973;43.742;1.236;2023-04-24T00:56:22;9.00;99.90
44277;DHT22;29973;43.742;1.236;2023-04-24T00:58:49;9.20;99.90
44277;DHT22;29973;43.742;1.236;2023-04-24T01:01:15;9.20;99.90
44277;DHT22;29973;43.742;1.236;2023-04-24T01:03:41;9.20;99.90
44277;DHT22;29973;43.742;1.236;2023-04-24T01:06:07;9.20;99.90
44277;DHT22;29973;43.742;1.236;2023-04-24T01:08:34;9.30;99.90
44277;DHT22;29973;43.742;1.236;2023-04-24T01:11:03;9.30;99.90
44277;DHT22;29973;43.742;1.236;2023-04-24T01:13:29;9.40;99.90
44277;DHT22;29973;43.742;1.236;2023-04-24T01:15:56;9.30;99.90
44277;DHT22;29973;43.742;1.236;2023-04-24T01:18:22;9.30;99.90
44277;DHT22;29973;43.742;1.236;2023-04-24T01:20:51;9.20;99.90
44277;DHT22;29973;43.742;1.236;2023-04-24T01:23:18;9.00;99.90
44277;DHT22;29973;43.742;1.236;2023-04-24T01:25:44;9.00;99.90
44277;DHT22;29973;43.742;1.236;2023-04-24T01:28:11;9.00;99.90
44277;DHT22;29973;43.742;1.236;2023-04-24T01:30:36;9.00;99.90
44277;DHT22;29973;43.742;1.236;2023-04-24T01:33:02;9.00;99.90
44277;DHT22;29973;43.742;1.236;2023-04-24T01:35:28;9.10;99.90
44277;DHT22;29973;43.742;1.236;2023-04-24T01:37:54;9.30;99.90
44277;DHT22;29973;43.742;1.236;2023-04-24T01:40:20;9.10;99.90
44277;DHT22;29973;43.742;1.236;2023-04-24T01:42:46;9.10;99.90
44277;DHT22;29973;43.742;1.236;2023-04-24T01:45:12;9.10;99.90
44277;DHT22;29973;43.742;1.236;2023-04-24T01:47:40;9.00;99.90
44277;DHT22;29973;43.742;1.236;2023-04-24T01:50:07;9.00;99.90
44277;DHT22;29973;43.742;1.236;2023-04-24T01:52:33;9.00;99.90
44277;DHT22;29973;43.742;1.236;2023-04-24T01:55:00;9.20;99.90
44277;DHT22;29973;43.742;1.236;2023-04-24T01:57:26;9.10;99.90
44277;DHT22;29973;43.742;1.236;2023-04-24T01:59:52;9.10;99.90
44277;DHT22;29973;43.742;1.236;2023-04-24T02:02:18;9.20;99.90
44277;DHT22;29973;43.742;1.236;2023-04-24T02:04:43;9.30;99.90
44277;DHT22;29973;43.742;1.236;2023-04-24T02:07:09;9.50;99.90
44277;DHT22;29973;43.742;1.236;2023-04-24T02:09:35;9.60;99.90
44277;DHT22;29973;43.742;1.236;2023-04-24T02:12:01;9.40;99.90
44277;DHT22;29973;43.742;1.236;2023-04-24T02:14:26;9.30;99.90
44277;DHT22;29973;43.742;1.236;2023-04-24T02:16:52;9.40;99.90
44277;DHT22;29973;43.742;1.236;2023-04-24T02:19:18;9.20;99.90
44277;DHT22;29973;43.742;1.236;2023-04-24T02:21:44;9.20;99.90
44277;DHT22;29973;43.742;1.236;2023-04-24T02:24:10;9.30;99.90
44277;DHT22;29973;43.742;1.236;2023-04-24T02:26:36;9.60;99.90
44277;DHT22;29973;43.742;1.236;2023-04-24T02:29:01;9.90;99.90
44277;DHT22;29973;43.742;1.236;2023-04-24T02:31:27;10.30;99.90
44277;DHT22;29973;43.742;1.236;2023-04-24T02:33:53;10.40;99.90
44277;DHT22;29973;43.742;1.236;2023-04-24T02:36:19;10.20;99.90
44277;DHT22;29973;43.742;1.236;2023-04-24T02:38:44;10.20;99.90
44277;DHT22;29973;43.742;1.236;2023-04-24T02:41:10;10.50;99.90
44277;DHT22;29973;43.742;1.236;2023-04-24T02:43:36;10.60;99.90
44277;DHT22;29973;43.742;1.236;2023-04-24T02:46:02;10.60;99.90
44277;DHT22;29973;43.742;1.236;2023-04-24T02:48:28;10.50;99.90
44277;DHT22;29973;43.742;1.236;2023-04-24T02:50:54;10.70;99.90
44277;DHT22;29973;43.742;1.236;2023-04-24T02:53:20;10.60;99.90
44277;DHT22;29973;43.742;1.236;2023-04-24T02:55:45;10.60;99.90
44277;DHT22;29973;43.742;1.236;2023-04-24T02:58:11;10.80;99.90
44277;DHT22;29973;43.742;1.236;2023-04-24T03:00:38;10.50;99.90
44277;DHT22;29973;43.742;1.236;2023-04-24T03:03:05;10.20;99.90
44277;DHT22;29973;43.742;1.236;2023-04-24T03:05:30;10.00;99.90
44277;DHT22;29973;43.742;1.236;2023-04-24T03:07:56;9.80;99.90
44277;DHT22;29973;43.742;1.236;2023-04-24T03:10:22;9.80;99.90
44277;DHT22;29973;43.742;1.236;2023-04-24T03:12:48;9.80;99.90
44277;DHT22;29973;43.742;1.236;2023-04-24T03:15:14;9.60;99.90
44277;DHT22;29973;43.742;1.236;2023-04-24T03:17:40;9.40;99.90
44277;DHT22;29973;43.742;1.236;2023-04-24T03:20:06;9.60;99.90
44277;DHT22;29973;43.742;1.236;2023-04-24T03:22:33;9.50;99.90
44277;DHT22;29973;43.742;1.236;2023-04-24T03:25:00;9.50;99.90
44277;DHT22;29973;43.742;1.236;2023-04-24T03:27:25;9.50;99.90
44277;DHT22;29973;43.742;1.236;2023-04-24T03:29:51;9.40;99.90
44277;DHT22;29973;43.742;1.236;2023-04-24T03:32:21;9.30;99.90
44277;DHT22;29973;43.742;1.236;2023-04-24T03:34:48;9.30;99.90
44277;DHT22;29973;43.742;1.236;2023-04-24T03:37:13;9.20;99.90
44277;DHT22;29973;43.742;1.236;2023-04-24T03:39:39;9.00;99.90
44277;DHT22;29973;43.742;1.236;2023-04-24T03:42:05;8.90;99.90
44277;DHT22;29973;43.742;1.236;2023-04-24T03:44:30;8.70;99.90
44277;DHT22;29973;43.742;1.236;2023-04-24T03:46:58;8.70;99.90
44277;DHT22;29973;43.742;1.236;2023-04-24T03:49:23;8.80;99.90
44277;DHT22;29973;43.742;1.236;2023-04-24T03:51:49;9.00;99.90
44277;DHT22;29973;43.742;1.236;2023-04-24T03:54:15;8.80;99.90
44277;DHT22;29973;43.742;1.236;2023-04-24T03:56:40;8.90;99.90
44277;DHT22;29973;43.742;1.236;2023-04-24T03:59:06;9.10;99.90
44277;DHT22;29973;43.742;1.236;2023-04-24T04:01:32;8.90;99.90
44277;DHT22;29973;43.742;1.236;2023-04-24T04:03:57;8.90;99.90
44277;DHT22;29973;43.742;1.236;2023-04-24T04:06:23;8.80;99.90
44277;DHT22;29973;43.742;1.236;2023-04-24T04:08:49;8.70;99.90
44277;DHT22;29973;43.742;1.236;2023-04-24T04:11:14;8.50;99.90
44277;DHT22;29973;43.742;1.236;2023-04-24T04:13:40;8.50;99.90
44277;DHT22;29973;43.742;1.236;2023-04-24T04:16:06;8.90;99.90
44277;DHT22;29973;43.742;1.236;2023-04-24T04:18:31;9.00;99.90
44277;DHT22;29973;43.742;1.236;2023-04-24T04:20:57;9.10;99.90
44277;DHT22;29973;43.742;1.236;2023-04-24T04:23:23;9.00;99.90
44277;DHT22;29973;43.742;1.236;2023-04-24T04:25:49;8.80;99.90
44277;DHT22;29973;43.742;1.236;2023-04-24T04:28:15;9.10;99.90
44277;DHT22;29973;43.742;1.236;2023-04-24T04:30:41;9.20;99.90
44277;DHT22;29973;43.742;1.236;2023-04-24T04:33:06;9.50;99.90
44277;DHT22;29973;43.742;1.236;2023-04-24T04:35:33;9.50;99.90
44277;DHT22;29973;43.742;1.236;2023-04-24T04:37:59;9.70;99.90
44277;DHT22;29973;43.742;1.236;2023-04-24T04:40:25;9.70;99.90
44277;DHT22;29973;43.742;1.236;2023-04-24T04:42:51;9.60;99.90
44277;DHT22;29973;43.742;1.236;2023-04-24T04:45:18;9.50;99.90
44277;DHT22;29973;43.742;1.236;2023-04-24T04:47:44;10.00;99.90
44277;DHT22;29973;43.742;1.236;2023-04-24T04:50:10;10.20;99.90
44277;DHT22;29973;43.742;1.236;2023-04-24T04:52:36;10.30;99.90
44277;DHT22;29973;43.742;1.236;2023-04-24T04:55:02;10.20;99.90
44277;DHT22;29973;43.742;1.236;2023-04-24T04:57:28;10.40;99.90
44277;DHT22;29973;43.742;1.236;2023-04-24T04:59:54;10.30;99.90
44277;DHT22;29973;43.742;1.236;2023-04-24T05:02:20;10.30;99.90
44277;DHT22;29973;43.742;1.236;2023-04-24T05:04:46;10.40;99.90
44277;DHT22;29973;43.742;1.236;2023-04-24T05:07:11;10.40;99.90
44277;DHT22;29973;43.742;1.236;2023-04-24T05:09:37;10.50;99.90
44277;DHT22;29973;43.742;1.236;2023-04-24T05:12:03;10.50;99.90
44277;DHT22;29973;43.742;1.236;2023-04-24T05:14:29;10.60;99.90
44277;DHT22;29973;43.742;1.236;2023-04-24T05:16:54;10.60;99.90
44277;DHT22;29973;43.742;1.236;2023-04-24T05:19:20;10.60;99.90
44277;DHT22;29973;43.742;1.236;2023-04-24T05:21:46;10.60;99.90
44277;DHT22;29973;43.742;1.236;2023-04-24T05:24:11;10.80;99.90
44277;DHT22;29973;43.742;1.236;2023-04-24T05:26:37;10.80;99.90
44277;DHT22;29973;43.742;1.236;2023-04-24T05:29:03;10.90;99.90
44277;DHT22;29973;43.742;1.236;2023-04-24T05:31:29;10.90;99.90
44277;DHT22;29973;43.742;1.236;2023-04-24T05:33:55;11.00;99.90
44277;DHT22;29973;43.742;1.236;2023-04-24T05:36:20;11.10;99.90
44277;DHT22;29973;43.742;1.236;2023-04-24T05:38:46;11.20;99.90
44277;DHT22;29973;43.742;1.236;2023-04-24T05:41:12;11.30;99.90
44277;DHT22;29973;43.742;1.236;2023-04-24T05:43:37;11.40;99.90
44277;DHT22;29973;43.742;1.236;2023-04-24T05:46:03;11.50;99.90
44277;DHT22;29973;43.742;1.236;2023-04-24T05:48:29;11.50;99.90
44277;DHT22;29973;43.742;1.236;2023-04-24T05:50:55;11.50;99.90
44277;DHT22;29973;43.742;1.236;2023-04-24T05:53:20;11.60;99.90
44277;DHT22;29973;43.742;1.236;2023-04-24T05:55:47;11.60;99.90
44277;DHT22;29973;43.742;1.236;2023-04-24T05:58:12;11.70;99.90
44277;DHT22;29973;43.742;1.236;2023-04-24T06:00:38;11.80;99.90
44277;DHT22;29973;43.742;1.236;2023-04-24T06:03:07;12.00;99.90
44277;DHT22;29973;43.742;1.236;2023-04-24T06:05:34;12.20;99.90
44277;DHT22;29973;43.742;1.236;2023-04-24T06:08:00;12.20;99.90
44277;DHT22;29973;43.742;1.236;2023-04-24T06:10:26;12.20;99.90
44277;DHT22;29973;43.742;1.236;2023-04-24T06:12:51;12.10;99.90
44277;DHT22;29973;43.742;1.236;2023-04-24T06:15:17;12.20;99.90
44277;DHT22;29973;43.742;1.236;2023-04-24T06:17:43;12.10;99.90
44277;DHT22;29973;43.742;1.236;2023-04-24T06:20:08;12.20;99.90
44277;DHT22;29973;43.742;1.236;2023-04-24T06:22:36;12.30;99.90
44277;DHT22;29973;43.742;1.236;2023-04-24T06:25:02;12.20;99.90
44277;DHT22;29973;43.742;1.236;2023-04-24T06:27:27;12.30;99.90
44277;DHT22;29973;43.742;1.236;2023-04-24T06:29:53;12.30;99.90
44277;DHT22;29973;43.742;1.236;2023-04-24T06:32:23;12.30;99.90
44277;DHT22;29973;43.742;1.236;2023-04-24T06:34:50;12.20;99.90
44277;DHT22;29973;43.742;1.236;2023-04-24T06:37:16;12.20;99.90
44277;DHT22;29973;43.742;1.236;2023-04-24T06:39:42;12.30;99.90
44277;DHT22;29973;43.742;1.236;2023-04-24T06:42:08;12.20;99.90
44277;DHT22;29973;43.742;1.236;2023-04-24T06:44:35;12.10;99.90
44277;DHT22;29973;43.742;1.236;2023-04-24T06:47:06;12.00;99.90
44277;DHT22;29973;43.742;1.236;2023-04-24T06:49:33;12.20;99.90
44277;DHT22;29973;43.742;1.236;2023-04-24T06:51:59;12.20;99.90
44277;DHT22;29973;43.742;1.236;2023-04-24T06:54:25;12.20;99.90
44277;DHT22;29973;43.742;1.236;2023-04-24T06:56:50;12.10;99.90
44277;DHT22;29973;43.742;1.236;2023-04-24T06:59:17;12.10;99.90
44277;DHT22;29973;43.742;1.236;2023-04-24T07:01:43;12.30;99.90
44277;DHT22;29973;43.742;1.236;2023-04-24T07:04:08;12.20;99.90
44277;DHT22;29973;43.742;1.236;2023-04-24T07:06:35;12.10;99.90
44277;DHT22;29973;43.742;1.236;2023-04-24T07:09:01;12.40;99.90
44277;DHT22;29973;43.742;1.236;2023-04-24T07:11:29;12.60;99.90
44277;DHT22;29973;43.742;1.236;2023-04-24T07:13:55;12.30;99.90
44277;DHT22;29973;43.742;1.236;2023-04-24T07:16:21;12.50;99.90
44277;DHT22;29973;43.742;1.236;2023-04-24T07:18:47;12.70;99.90
44277;DHT22;29973;43.742;1.236;2023-04-24T07:21:13;12.60;99.90
44277;DHT22;29973;43.742;1.236;2023-04-24T07:23:38;13.00;99.90
44277;DHT22;29973;43.742;1.236;2023-04-24T07:26:06;13.10;99.90
44277;DHT22;29973;43.742;1.236;2023-04-24T07:28:32;13.10;99.90
44277;DHT22;29973;43.742;1.236;2023-04-24T07:30:58;13.00;99.90
44277;DHT22;29973;43.742;1.236;2023-04-24T07:33:25;13.40;99.90
44277;DHT22;29973;43.742;1.236;2023-04-24T07:35:51;13.10;99.90
44277;DHT22;29973;43.742;1.236;2023-04-24T07:38:17;13.20;99.90
44277;DHT22;29973;43.742;1.236;2023-04-24T07:40:47;13.30;99.90
44277;DHT22;29973;43.742;1.236;2023-04-24T07:43:12;13.10;99.90
44277;DHT22;29973;43.742;1.236;2023-04-24T07:45:38;13.60;99.90
44277;DHT22;29973;43.742;1.236;2023-04-24T07:48:05;13.20;99.90
44277;DHT22;29973;43.742;1.236;2023-04-24T07:50:31;13.20;99.90
44277;DHT22;29973;43.742;1.236;2023-04-24T07:52:57;13.60;99.90
44277;DHT22;29973;43.742;1.236;2023-04-24T07:55:23;13.90;99.90
44277;DHT22;29973;43.742;1.236;2023-04-24T07:57:49;14.00;99.90
44277;DHT22;29973;43.742;1.236;2023-04-24T08:00:15;14.00;99.90
44277;DHT22;29973;43.742;1.236;2023-04-24T08:02:41;13.90;99.90
44277;DHT22;29973;43.742;1.236;2023-04-24T08:05:07;14.00;99.90
44277;DHT22;29973;43.742;1.236;2023-04-24T08:07:33;13.60;99.90
44277;DHT22;29973;43.742;1.236;2023-04-24T08:09:58;13.70;99.90
44277;DHT22;29973;43.742;1.236;2023-04-24T08:12:25;14.00;99.90
44277;DHT22;29973;43.742;1.236;2023-04-24T08:14:50;13.90;99.90
44277;DHT22;29973;43.742;1.236;2023-04-24T08:17:17;13.70;99.90
44277;DHT22;29973;43.742;1.236;2023-04-24T08:19:43;14.20;99.90
44277;DHT22;29973;43.742;1.236;2023-04-24T08:22:13;14.30;99.90
44277;DHT22;29973;43.742;1.236;2023-04-24T08:24:39;14.30;99.90
44277;DHT22;29973;43.742;1.236;2023-04-24T08:27:05;14.00;99.90
44277;DHT22;29973;43.742;1.236;2023-04-24T08:29:31;13.60;99.90
44277;DHT22;29973;43.742;1.236;2023-04-24T08:31:57;13.30;99.90
44277;DHT22;29973;43.742;1.236;2023-04-24T08:34:23;13.10;99.90
44277;DHT22;29973;43.742;1.236;2023-04-24T08:36:49;13.10;99.90
44277;DHT22;29973;43.742;1.236;2023-04-24T08:39:15;13.20;99.90
44277;DHT22;29973;43.742;1.236;2023-04-24T08:41:42;13.20;99.90
44277;DHT22;29973;43.742;1.236;2023-04-24T08:44:12;12.90;99.90
44277;DHT22;29973;43.742;1.236;2023-04-24T08:46:39;13.10;99.90
44277;DHT22;29973;43.742;1.236;2023-04-24T08:49:06;13.70;99.90
44277;DHT22;29973;43.742;1.236;2023-04-24T08:51:31;14.40;99.90
44277;DHT22;29973;43.742;1.236;2023-04-24T08:53:58;14.70;99.90
44277;DHT22;29973;43.742;1.236;2023-04-24T08:56:24;14.70;99.90
44277;DHT22;29973;43.742;1.236;2023-04-24T08:58:51;14.60;99.90
44277;DHT22;29973;43.742;1.236;2023-04-24T09:01:19;14.90;99.90
44277;DHT22;29973;43.742;1.236;2023-04-24T09:03:47;15.60;99.90
44277;DHT22;29973;43.742;1.236;2023-04-24T09:06:14;15.60;99.90
44277;DHT22;29973;43.742;1.236;2023-04-24T09:08:41;16.00;99.90
44277;DHT22;29973;43.742;1.236;2023-04-24T09:11:08;15.30;99.90
44277;DHT22;29973;43.742;1.236;2023-04-24T09:13:34;15.00;99.90
44277;DHT22;29973;43.742;1.236;2023-04-24T09:16:00;15.50;99.90
44277;DHT22;29973;43.742;1.236;2023-04-24T09:18:26;15.40;99.90
44277;DHT22;29973;43.742;1.236;2023-04-24T09:21:03;15.30;99.90
44277;DHT22;29973;43.742;1.236;2023-04-24T09:23:30;15.60;99.90
44277;DHT22;29973;43.742;1.236;2023-04-24T09:25:57;15.30;99.90
44277;DHT22;29973;43.742;1.236;2023-04-24T09:28:38;15.60;99.90
44277;DHT22;29973;43.742;1.236;2023-04-24T09:31:15;15.30;99.90
44277;DHT22;29973;43.742;1.236;2023-04-24T09:34:04;15.50;99.90
44277;DHT22;29973;43.742;1.236;2023-04-24T09:36:38;15.90;99.90
44277;DHT22;29973;43.742;1.236;2023-04-24T09:39:05;16.10;99.90
44277;DHT22;29973;43.742;1.236;2023-04-24T09:41:33;15.60;99.90
44277;DHT22;29973;43.742;1.236;2023-04-24T09:44:13;16.00;99.90
44277;DHT22;29973;43.742;1.236;2023-04-24T09:46:41;17.10;99.90
44277;DHT22;29973;43.742;1.236;2023-04-24T09:49:13;17.00;99.90
44277;DHT22;29973;43.742;1.236;2023-04-24T09:51:40;17.30;99.90
44277;DHT22;29973;43.742;1.236;2023-04-24T09:56:43;16.50;99.90
44277;DHT22;29973;43.742;1.236;2023-04-24T09:59:10;16.70;99.90
44277;DHT22;29973;43.742;1.236;2023-04-24T10:01:36;16.90;99.90
44277;DHT22;29973;43.742;1.236;2023-04-24T10:04:04;16.50;99.90
44277;DHT22;29973;43.742;1.236;2023-04-24T10:06:34;15.80;99.90
44277;DHT22;29973;43.742;1.236;2023-04-24T10:09:00;15.80;99.90
44277;DHT22;29973;43.742;1.236;2023-04-24T10:11:27;15.20;99.90
44277;DHT22;29973;43.742;1.236;2023-04-24T10:13:53;15.50;99.90
44277;DHT22;29973;43.742;1.236;2023-04-24T10:16:22;15.90;99.90
44277;DHT22;29973;43.742;1.236;2023-04-24T10:18:48;15.60;99.90
44277;DHT22;29973;43.742;1.236;2023-04-24T10:21:17;15.50;99.90
44277;DHT22;29973;43.742;1.236;2023-04-24T10:23:43;16.00;99.90
44277;DHT22;29973;43.742;1.236;2023-04-24T10:26:12;15.90;99.90
44277;DHT22;29973;43.742;1.236;2023-04-24T10:28:45;16.00;99.90
44277;DHT22;29973;43.742;1.236;2023-04-24T10:31:12;16.80;99.90
44277;DHT22;29973;43.742;1.236;2023-04-24T10:33:39;17.50;99.90
44277;DHT22;29973;43.742;1.236;2023-04-24T10:36:08;18.10;99.90
44277;DHT22;29973;43.742;1.236;2023-04-24T10:38:35;17.10;99.90
44277;DHT22;29973;43.742;1.236;2023-04-24T10:41:09;17.40;99.90
44277;DHT22;29973;43.742;1.236;2023-04-24T10:43:36;17.40;99.90
44277;DHT22;29973;43.742;1.236;2023-04-24T10:46:03;17.30;99.90
44277;DHT22;29973;43.742;1.236;2023-04-24T10:48:29;18.70;99.90
44277;DHT22;29973;43.742;1.236;2023-04-24T10:50:55;18.30;99.90
44277;DHT22;29973;43.742;1.236;2023-04-24T10:53:24;17.70;99.90
44277;DHT22;29973;43.742;1.236;2023-04-24T10:56:08;17.20;99.90
44277;DHT22;29973;43.742;1.236;2023-04-24T10:58:42;17.90;99.90
44277;DHT22;29973;43.742;1.236;2023-04-24T11:01:27;17.70;99.90
44277;DHT22;29973;43.742;1.236;2023-04-24T11:04:00;17.90;99.90
44277;DHT22;29973;43.742;1.236;2023-04-24T11:06:36;17.50;99.90
44277;DHT22;29973;43.742;1.236;2023-04-24T11:09:09;17.80;99.90
44277;DHT22;29973;43.742;1.236;2023-04-24T11:11:38;18.20;99.90
44277;DHT22;29973;43.742;1.236;2023-04-24T11:14:09;18.20;99.90
44277;DHT22;29973;43.742;1.236;2023-04-24T11:19:24;17.20;99.90
44277;DHT22;29973;43.742;1.236;2023-04-24T11:22:00;17.00;99.90
44277;DHT22;29973;43.742;1.236;2023-04-24T11:29:22;17.00;99.90
44277;DHT22;29973;43.742;1.236;2023-04-24T11:31:49;16.80;99.90
44277;DHT22;29973;43.742;1.236;2023-04-24T11:34:17;17.40;99.90
44277;DHT22;29973;43.742;1.236;2023-04-24T11:36:46;17.40;99.90
44277;DHT22;29973;43.742;1.236;2023-04-24T11:39:15;16.50;99.90
44277;DHT22;29973;43.742;1.236;2023-04-24T11:41:41;16.50;99.90
44277;DHT22;29973;43.742;1.236;2023-04-24T11:44:08;17.10;99.90
44277;DHT22;29973;43.742;1.236;2023-04-24T11:46:34;17.30;99.90
44277;DHT22;29973;43.742;1.236;2023-04-24T11:49:00;17.00;99.90
44277;DHT22;29973;43.742;1.236;2023-04-24T11:51:28;17.30;99.90
44277;DHT22;29973;43.742;1.236;2023-04-24T11:53:55;17.40;99.90
44277;DHT22;29973;43.742;1.236;2023-04-24T11:56:25;17.30;99.90
44277;DHT22;29973;43.742;1.236;2023-04-24T11:58:54;16.40;99.90
44277;DHT22;29973;43.742;1.236;2023-04-24T12:01:20;17.00;99.90
44277;DHT22;29973;43.742;1.236;2023-04-24T12:03:50;19.10;99.90
44277;DHT22;29973;43.742;1.236;2023-04-24T12:06:20;18.60;99.90
44277;DHT22;29973;43.742;1.236;2023-04-24T12:08:46;18.80;99.90
44277;DHT22;29973;43.742;1.236;2023-04-24T12:11:15;17.50;99.90
44277;DHT22;29973;43.742;1.236;2023-04-24T12:13:41;17.50;99.90
44277;DHT22;29973;43.742;1.236;2023-04-24T12:16:06;18.00;99.90
44277;DHT22;29973;43.742;1.236;2023-04-24T12:18:32;16.70;99.90
44277;DHT22;29973;43.742;1.236;2023-04-24T12:21:20;16.80;99.90
44277;DHT22;29973;43.742;1.236;2023-04-24T12:23:47;18.30;99.90
44277;DHT22;29973;43.742;1.236;2023-04-24T12:26:18;17.30;99.90
44277;DHT22;29973;43.742;1.236;2023-04-24T12:28:47;17.50;99.90
44277;DHT22;29973;43.742;1.236;2023-04-24T12:31:15;18.80;99.90
44277;DHT22;29973;43.742;1.236;2023-04-24T12:33:41;21.10;99.90
44277;DHT22;29973;43.742;1.236;2023-04-24T12:36:10;23.50;99.90
44277;DHT22;29973;43.742;1.236;2023-04-24T12:38:38;22.90;99.90
44277;DHT22;29973;43.742;1.236;2023-04-24T12:41:12;21.10;99.90
44277;DHT22;29973;43.742;1.236;2023-04-24T12:43:38;20.80;99.90
44277;DHT22;29973;43.742;1.236;2023-04-24T12:46:04;20.90;99.90
44277;DHT22;29973;43.742;1.236;2023-04-24T12:48:30;20.10;99.90
44277;DHT22;29973;43.742;1.236;2023-04-24T12:51:00;18.20;99.90
44277;DHT22;29973;43.742;1.236;2023-04-24T12:53:29;19.20;99.90
44277;DHT22;29973;43.742;1.236;2023-04-24T12:55:57;19.60;99.90
44277;DHT22;29973;43.742;1.236;2023-04-24T12:58:23;18.20;99.90
44277;DHT22;29973;43.742;1.236;2023-04-24T13:00:49;18.80;99.90
44277;DHT22;29973;43.742;1.236;2023-04-24T13:03:15;18.60;99.90
44277;DHT22;29973;43.742;1.236;2023-04-24T13:05:42;19.00;99.90
44277;DHT22;29973;43.742;1.236;2023-04-24T13:08:08;19.10;99.90
44277;DHT22;29973;43.742;1.236;2023-04-24T13:10:34;19.90;99.90
44277;DHT22;29973;43.742;1.236;2023-04-24T13:13:00;20.90;99.90
44277;DHT22;29973;43.742;1.236;2023-04-24T13:15:26;20.60;99.90
44277;DHT22;29973;43.742;1.236;2023-04-24T13:17:51;20.80;99.90
44277;DHT22;29973;43.742;1.236;2023-04-24T13:20:17;19.70;99.90
44277;DHT22;29973;43.742;1.236;2023-04-24T13:22:43;20.50;99.90
44277;DHT22;29973;43.742;1.236;2023-04-24T13:25:09;23.60;99.90
44277;DHT22;29973;43.742;1.236;2023-04-24T13:27:37;25.30;99.90
44277;DHT22;29973;43.742;1.236;2023-04-24T13:30:03;23.00;99.90
44277;DHT22;29973;43.742;1.236;2023-04-24T13:32:29;21.30;99.90
44277;DHT22;29973;43.742;1.236;2023-04-24T13:34:56;20.80;99.90
44277;DHT22;29973;43.742;1.236;2023-04-24T13:37:22;20.80;99.90
44277;DHT22;29973;43.742;1.236;2023-04-24T13:39:48;20.30;99.90
44277;DHT22;29973;43.742;1.236;2023-04-24T13:42:14;19.40;99.90
44277;DHT22;29973;43.742;1.236;2023-04-24T13:44:39;19.40;99.90
44277;DHT22;29973;43.742;1.236;2023-04-24T13:47:05;20.00;99.90
44277;DHT22;29973;43.742;1.236;2023-04-24T13:49:31;19.40;99.90
44277;DHT22;29973;43.742;1.236;2023-04-24T13:51:57;19.70;99.90
44277;DHT22;29973;43.742;1.236;2023-04-24T13:54:23;20.10;99.90
44277;DHT22;29973;43.742;1.236;2023-04-24T13:56:51;19.70;99.90
44277;DHT22;29973;43.742;1.236;2023-04-24T13:59:17;19.90;99.90
44277;DHT22;29973;43.742;1.236;2023-04-24T14:01:42;20.00;99.90
44277;DHT22;29973;43.742;1.236;2023-04-24T14:04:10;20.00;99.90
44277;DHT22;29973;43.742;1.236;2023-04-24T14:06:36;19.30;99.90
44277;DHT22;29973;43.742;1.236;2023-04-24T14:09:02;19.90;99.90
44277;DHT22;29973;43.742;1.236;2023-04-24T14:11:28;19.50;99.90
44277;DHT22;29973;43.742;1.236;2023-04-24T14:13:54;18.70;99.90
44277;DHT22;29973;43.742;1.236;2023-04-24T14:16:22;19.50;99.90
44277;DHT22;29973;43.742;1.236;2023-04-24T14:18:47;20.10;99.90
44277;DHT22;29973;43.742;1.236;2023-04-24T14:21:13;20.00;99.90
44277;DHT22;29973;43.742;1.236;2023-04-24T14:23:39;19.50;99.90
44277;DHT22;29973;43.742;1.236;2023-04-24T14:26:04;19.50;99.90
44277;DHT22;29973;43.742;1.236;2023-04-24T14:28:30;20.10;99.90
44277;DHT22;29973;43.742;1.236;2023-04-24T14:30:56;21.60;99.90
44277;DHT22;29973;43.742;1.236;2023-04-24T14:33:22;21.60;99.90
44277;DHT22;29973;43.742;1.236;2023-04-24T14:35:47;22.60;99.90
44277;DHT22;29973;43.742;1.236;2023-04-24T14:38:13;21.10;99.90
44277;DHT22;29973;43.742;1.236;2023-04-24T14:40:40;20.80;99.90
44277;DHT22;29973;43.742;1.236;2023-04-24T14:43:05;19.80;99.90
44277;DHT22;29973;43.742;1.236;2023-04-24T14:45:32;19.60;99.90
44277;DHT22;29973;43.742;1.236;2023-04-24T14:47:58;19.90;99.90
44277;DHT22;29973;43.742;1.236;2023-04-24T14:50:24;19.60;99.90
44277;DHT22;29973;43.742;1.236;2023-04-24T14:52:53;19.10;99.90
44277;DHT22;29973;43.742;1.236;2023-04-24T14:55:20;19.60;99.90
44277;DHT22;29973;43.742;1.236;2023-04-24T14:57:46;19.50;99.90
44277;DHT22;29973;43.742;1.236;2023-04-24T15:00:12;18.50;99.90
44277;DHT22;29973;43.742;1.236;2023-04-24T15:02:38;19.00;99.90
44277;DHT22;29973;43.742;1.236;2023-04-24T15:05:07;19.10;99.90
44277;DHT22;29973;43.742;1.236;2023-04-24T15:07:33;18.50;99.90
44277;DHT22;29973;43.742;1.236;2023-04-24T15:10:00;18.70;99.90
44277;DHT22;29973;43.742;1.236;2023-04-24T15:12:26;18.80;99.90
44277;DHT22;29973;43.742;1.236;2023-04-24T15:14:54;18.90;99.90
44277;DHT22;29973;43.742;1.236;2023-04-24T15:17:20;19.40;99.90
44277;DHT22;29973;43.742;1.236;2023-04-24T15:19:45;20.00;99.90
44277;DHT22;29973;43.742;1.236;2023-04-24T15:22:11;20.40;99.90
44277;DHT22;29973;43.742;1.236;2023-04-24T15:24:36;19.90;99.90
44277;DHT22;29973;43.742;1.236;2023-04-24T15:27:02;19.80;99.90
44277;DHT22;29973;43.742;1.236;2023-04-24T15:29:28;19.80;99.90
44277;DHT22;29973;43.742;1.236;2023-04-24T15:31:54;19.30;99.90
44277;DHT22;29973;43.742;1.236;2023-04-24T15:34:20;18.80;99.90
44277;DHT22;29973;43.742;1.236;2023-04-24T15:36:46;18.30;99.90
44277;DHT22;29973;43.742;1.236;2023-04-24T15:39:12;17.80;99.90
44277;DHT22;29973;43.742;1.236;2023-04-24T15:41:38;17.40;99.90